Terminal Aerodrome Forecast
Issued by NWS

Home | Current Version | Previous Version | Text Only | Print | Product List | Glossary On
Versions: 1 2 3 4 5 6 7 8 9 10 11 12 13 14 15 16 17 18 19 20 21
270
FTUS43 KDLH 210520
TAFBRD
TAF
KBRD 210520Z 2106/2206 17013KT P6SM SCT080 BKN200
     FM211200 17013G20KT P6SM VCSH OVC025
     FM211400 17014G21KT P6SM VCSH OVC015
     FM211700 17014G22KT P6SM -SHRA OVC012
     FM212000 19010KT 6SM -SHRA VCTS OVC012CB
     FM220000 23012KT P6SM VCSH BKN045=

USA.gov is the U.S. government's official web portal to all federal, state and local government web resources and services.